createdAt,value
2018-12-11T00:00:54.166Z,3.63
2018-12-11T00:03:27.536Z,3.57
2018-12-11T00:05:59.820Z,4.10
2018-12-11T00:08:34.252Z,3.90
2018-12-11T00:11:06.464Z,3.77
2018-12-11T00:13:38.851Z,3.50
2018-12-11T00:16:11.290Z,3.20
2018-12-11T00:18:43.384Z,3.13
2018-12-11T00:21:15.346Z,3.27
2018-12-11T00:23:47.749Z,3.37
2018-12-11T00:26:22.343Z,3.30
2018-12-11T00:28:54.362Z,3.40
2018-12-11T00:31:26.451Z,2.87
2018-12-11T00:34:01.361Z,3.37
2018-12-11T00:36:32.967Z,3.07
2018-12-11T00:39:06.970Z,3.77
2018-12-11T00:41:38.713Z,3.53
2018-12-11T00:44:11.075Z,3.13
2018-12-11T00:46:43.370Z,2.93
2018-12-11T00:49:15.808Z,3.47
2018-12-11T00:51:47.273Z,3.10
2018-12-11T00:54:18.911Z,3.00
2018-12-11T00:56:51.089Z,3.13
2018-12-11T01:01:55.016Z,2.90
2018-12-11T01:11:50.155Z,2.80
2018-12-11T01:14:24.903Z,2.80
2018-12-11T01:17:03.528Z,3.10
2018-12-11T01:19:38.550Z,2.43
2018-12-11T01:22:10.092Z,3.07
2018-12-11T01:24:44.723Z,3.20
2018-12-11T01:27:19.538Z,3.10
2018-12-11T01:29:51.319Z,2.87
2018-12-11T01:32:23.575Z,3.00
2018-12-11T01:34:55.662Z,2.97
2018-12-11T01:37:28.109Z,3.30
2018-12-11T01:40:00.309Z,3.00
2018-12-11T01:42:32.187Z,2.83
2018-12-11T01:45:05.006Z,3.23
2018-12-11T01:47:39.102Z,2.87
2018-12-11T01:50:11.150Z,3.30
2018-12-11T01:52:43.390Z,2.70
2018-12-11T01:55:15.631Z,2.73
2018-12-11T01:57:47.988Z,2.73
2018-12-11T02:00:22.486Z,2.50
2018-12-11T02:02:54.647Z,2.70
2018-12-11T02:05:29.285Z,2.90
2018-12-11T02:08:01.428Z,2.60
2018-12-11T02:13:06.595Z,2.43
2018-12-11T02:15:43.596Z,2.87
2018-12-11T02:18:15.922Z,2.83
2018-12-11T02:20:50.510Z,3.07
2018-12-11T02:23:22.988Z,3.17
2018-12-11T02:25:55.398Z,1.93
2018-12-11T02:28:30.239Z,2.57
2018-12-11T02:31:02.667Z,2.67
2018-12-11T02:33:34.782Z,2.60
2018-12-11T02:36:09.677Z,2.40
2018-12-11T02:38:41.490Z,2.67
2018-12-11T02:41:13.462Z,2.10
2018-12-11T02:43:45.659Z,2.70
2018-12-11T02:46:18.058Z,2.40
2018-12-11T02:48:50.080Z,2.80
2018-12-11T02:51:22.555Z,2.50
2018-12-11T02:53:54.661Z,2.43
2018-12-11T02:56:29.411Z,2.70
2018-12-11T02:59:03.784Z,2.27
2018-12-11T03:01:38.264Z,2.87
2018-12-11T03:04:12.586Z,2.53
2018-12-11T03:06:49.201Z,3.03
2018-12-11T03:09:21.058Z,2.63
2018-12-11T03:11:53.040Z,2.77
2018-12-11T03:16:54.240Z,2.43
2018-12-11T03:24:24.530Z,2.30
2018-12-11T03:36:53.577Z,2.17
2018-12-11T03:44:27.006Z,2.10
2018-12-11T03:47:01.734Z,2.17
2018-12-11T03:49:36.512Z,3.43
2018-12-11T03:52:10.694Z,2.70
2018-12-11T03:54:45.631Z,2.00
2018-12-11T03:57:17.080Z,2.27
2018-12-11T03:59:49.364Z,2.20
2018-12-11T04:02:21.471Z,2.03
2018-12-11T04:04:56.263Z,2.00
2018-12-11T04:07:28.037Z,2.03
2018-12-11T04:10:00.583Z,2.10
2018-12-11T04:12:32.732Z,2.00
2018-12-11T04:15:07.591Z,2.30
2018-12-11T04:17:41.664Z,1.93
2018-12-11T04:20:13.911Z,2.07
2018-12-11T04:22:48.583Z,1.80
2018-12-11T04:25:20.184Z,1.90
2018-12-11T04:27:52.087Z,1.80
2018-12-11T04:30:26.302Z,1.90
2018-12-11T04:33:01.067Z,2.07
2018-12-11T04:35:33.001Z,2.00
2018-12-11T04:38:07.607Z,1.80
2018-12-11T04:40:42.714Z,2.03
2018-12-11T04:43:12.358Z,2.00
2018-12-11T04:45:44.611Z,1.90
2018-12-11T04:48:16.791Z,2.17
2018-12-11T04:50:48.971Z,1.80
2018-12-11T04:53:20.876Z,2.20
2018-12-11T04:55:52.990Z,2.03
2018-12-11T04:58:25.210Z,1.90
2018-12-11T05:01:00.073Z,2.03
2018-12-11T05:03:34.252Z,1.93
2018-12-11T05:06:06.068Z,1.90
2018-12-11T05:08:38.236Z,1.73
2018-12-11T05:11:10.229Z,1.80
2018-12-11T05:13:44.296Z,1.97
2018-12-11T05:16:15.955Z,2.13
2018-12-11T05:18:50.660Z,1.87
2018-12-11T05:21:22.161Z,1.70
2018-12-11T05:23:54.170Z,1.87
2018-12-11T05:26:26.321Z,1.80
2018-12-11T05:29:00.899Z,1.90
2018-12-11T05:31:32.974Z,2.07
2018-12-11T05:34:05.287Z,2.20
2018-12-11T05:36:37.469Z,1.83
2018-12-11T05:39:12.122Z,2.10
2018-12-11T05:41:44.194Z,2.20
2018-12-11T05:44:16.415Z,2.17
2018-12-11T05:46:50.922Z,2.43
2018-12-11T05:49:25.727Z,2.10
2018-12-11T05:54:48.150Z,2.03
2018-12-11T06:06:07.374Z,2.13
2018-12-11T06:17:27.840Z,1.87
2018-12-11T06:41:05.448Z,1.97
2018-12-11T06:43:38.478Z,3.07
2018-12-11T06:46:16.224Z,2.30
2018-12-11T06:48:59.958Z,2.30
2018-12-11T06:54:42.798Z,2.93
2018-12-11T06:57:24.891Z,2.30
2018-12-11T07:06:08.041Z,2.00
2018-12-11T07:14:26.959Z,2.20
2018-12-11T07:19:54.334Z,2.53
2018-12-11T07:22:34.966Z,2.17
2018-12-11T07:25:12.346Z,2.17
2018-12-11T07:27:45.726Z,2.10
2018-12-11T07:30:19.816Z,2.00
2018-12-11T07:32:56.019Z,1.93
2018-12-11T07:35:35.139Z,2.00
2018-12-11T07:38:07.633Z,2.13
2018-12-11T07:40:39.358Z,2.37
2018-12-11T07:43:14.921Z,2.20
2018-12-11T07:45:46.913Z,2.30
2018-12-11T07:48:18.660Z,2.20
2018-12-11T07:50:51.611Z,2.07
2018-12-11T07:53:24.288Z,2.43
2018-12-11T07:56:00.151Z,2.80
2018-12-11T07:58:32.763Z,2.97
2018-12-11T08:01:08.568Z,3.13
2018-12-11T08:03:43.145Z,4.10
2018-12-11T08:06:15.688Z,3.80
2018-12-11T08:08:48.500Z,3.47
2018-12-11T08:14:01.757Z,4.00
2018-12-11T08:16:40.570Z,3.70
2018-12-11T08:19:27.480Z,4.07
2018-12-11T08:22:03.697Z,6.90
2018-12-11T08:24:36.376Z,6.70
2018-12-11T08:27:09.079Z,5.50
2018-12-11T08:29:43.487Z,5.00
2018-12-11T08:32:15.512Z,5.30
2018-12-11T08:34:48.246Z,4.60
2018-12-11T08:37:20.385Z,3.00
2018-12-11T08:39:53.534Z,3.30
2018-12-11T08:42:26.484Z,3.23
2018-12-11T08:44:59.748Z,3.03
2018-12-11T08:47:31.509Z,3.20
2018-12-11T08:50:04.084Z,2.87
2018-12-11T08:52:38.614Z,2.90
2018-12-11T08:55:11.642Z,2.33
2018-12-11T08:57:46.444Z,2.80
2018-12-11T09:00:21.552Z,2.53
2018-12-11T09:03:00.922Z,2.30
2018-12-11T09:05:33.418Z,2.50
2018-12-11T09:08:03.890Z,2.23
2018-12-11T09:10:37.356Z,3.13
2018-12-11T09:13:10.567Z,3.00
2018-12-11T09:15:59.325Z,3.27
2018-12-11T09:18:38.087Z,2.50
2018-12-11T09:21:18.746Z,2.77
2018-12-11T09:24:01.548Z,2.63
2018-12-11T09:26:37.234Z,2.60
2018-12-11T09:29:12.627Z,2.60
2018-12-11T09:31:47.319Z,2.53
2018-12-11T09:34:27.167Z,2.97
2018-12-11T09:36:59.489Z,2.83
2018-12-11T09:39:31.550Z,2.37
2018-12-11T09:42:07.405Z,2.30
2018-12-11T09:44:40.810Z,2.60
2018-12-11T09:47:14.805Z,2.80
2018-12-11T09:50:01.078Z,2.77
2018-12-11T09:52:35.419Z,2.70
2018-12-11T09:55:08.121Z,2.93
2018-12-11T09:57:46.499Z,3.40
2018-12-11T10:00:19.246Z,3.17
2018-12-11T10:02:53.725Z,3.07
2018-12-11T10:05:26.251Z,3.10
2018-12-11T10:07:58.410Z,2.73
2018-12-11T10:16:07.937Z,2.50
2018-12-11T10:18:42.008Z,3.23
2018-12-11T10:21:14.188Z,2.90
2018-12-11T10:23:49.885Z,3.07
2018-12-11T10:26:24.117Z,3.57
2018-12-11T10:28:55.821Z,2.40
2018-12-11T10:31:28.313Z,2.90
2018-12-11T10:34:02.996Z,2.50
2018-12-11T10:36:35.304Z,2.37
2018-12-11T10:39:09.817Z,2.40
2018-12-11T10:41:44.007Z,2.00
2018-12-11T10:44:15.676Z,2.13
2018-12-11T10:46:48.021Z,2.40
2018-12-11T10:49:20.542Z,2.13
2018-12-11T10:51:53.024Z,2.03
2018-12-11T10:54:27.494Z,2.10
2018-12-11T10:57:01.834Z,2.07
2018-12-11T10:59:38.018Z,1.80
2018-12-11T11:02:17.852Z,1.87
2018-12-11T11:04:56.409Z,2.03
2018-12-11T11:07:28.628Z,1.90
2018-12-11T11:10:00.467Z,1.73
2018-12-11T11:12:34.959Z,1.80
2018-12-11T11:15:08.189Z,2.47
2018-12-11T11:17:40.692Z,1.90
2018-12-11T11:20:13.550Z,1.77
2018-12-11T11:22:48.184Z,2.67
2018-12-11T11:25:20.306Z,1.77
2018-12-11T11:27:52.492Z,1.90
2018-12-11T11:30:27.032Z,2.37
2018-12-11T11:32:58.963Z,1.90
2018-12-11T11:35:30.708Z,2.00
2018-12-11T11:38:03.238Z,1.90
2018-12-11T11:40:35.176Z,2.00
2018-12-11T11:43:10.078Z,1.80
2018-12-11T11:45:41.738Z,2.53
2018-12-11T11:48:13.907Z,1.83
2018-12-11T11:50:47.650Z,1.90
2018-12-11T11:53:19.920Z,1.67
2018-12-11T11:55:54.600Z,1.60
2018-12-11T11:58:26.884Z,1.70
2018-12-11T12:00:59.051Z,1.90
2018-12-11T12:03:33.737Z,1.77
2018-12-11T12:06:05.645Z,1.87
2018-12-11T12:08:37.727Z,2.03
2018-12-11T12:11:12.259Z,1.83
2018-12-11T12:13:46.500Z,1.63
2018-12-11T12:16:19.340Z,2.27
2018-12-11T12:23:56.173Z,1.73
2018-12-11T12:26:28.403Z,1.57
2018-12-11T12:29:00.936Z,1.77
2018-12-11T12:31:33.663Z,1.60
2018-12-11T12:34:06.284Z,2.10
2018-12-11T12:36:40.550Z,1.70
2018-12-11T12:39:12.464Z,1.33
2018-12-11T12:41:44.192Z,2.07
2018-12-11T12:44:19.658Z,1.80
2018-12-11T12:46:51.652Z,1.57
2018-12-11T12:49:24.134Z,2.23
2018-12-11T12:51:57.165Z,1.73
2018-12-11T12:54:29.712Z,1.63
2018-12-11T12:57:04.430Z,1.43
2018-12-11T12:59:37.297Z,2.20
2018-12-11T13:02:12.405Z,1.30
2018-12-11T13:04:46.459Z,1.73
2018-12-11T13:07:18.322Z,1.30
2018-12-11T13:09:53.129Z,1.40
2018-12-11T13:12:25.649Z,1.47
2018-12-11T13:14:55.689Z,1.37
2018-12-11T13:17:28.339Z,1.23
2018-12-11T13:20:00.388Z,1.47
2018-12-11T13:22:32.121Z,1.10
2018-12-11T13:25:04.755Z,1.60
2018-12-11T13:27:37.689Z,1.57
2018-12-11T13:30:22.968Z,1.63
2018-12-11T13:32:57.472Z,1.60
2018-12-11T13:35:29.594Z,2.00
2018-12-11T13:38:01.476Z,1.70
2018-12-11T13:40:34.056Z,1.60
2018-12-11T13:43:06.364Z,1.90
2018-12-11T13:45:38.678Z,1.60
2018-12-11T13:48:11.051Z,1.80
2018-12-11T13:50:42.924Z,1.90
2018-12-11T13:53:14.915Z,1.67
2018-12-11T13:55:46.840Z,2.00
2018-12-11T13:58:19.382Z,1.90
2018-12-11T14:00:53.863Z,2.13
2018-12-11T14:03:25.835Z,1.80
2018-12-11T14:05:58.307Z,1.73
2018-12-11T14:08:30.743Z,2.00
2018-12-11T14:11:02.848Z,1.97
2018-12-11T14:13:34.885Z,1.90
2018-12-11T14:16:09.513Z,2.00
2018-12-11T14:18:44.876Z,2.43
2018-12-11T14:21:16.677Z,2.20
2018-12-11T14:23:50.935Z,2.40
2018-12-11T14:26:22.719Z,2.13
2018-12-11T14:28:58.446Z,2.30
2018-12-11T14:31:30.257Z,2.33
2018-12-11T14:34:02.511Z,2.30
2018-12-11T14:36:37.347Z,3.20
2018-12-11T14:39:09.117Z,3.00
2018-12-11T14:41:41.167Z,3.37
2018-12-11T14:44:15.855Z,3.40
2018-12-11T14:46:47.821Z,4.17
2018-12-11T14:49:22.531Z,3.67
2018-12-11T14:51:57.236Z,2.67
2018-12-11T14:54:31.469Z,3.13
2018-12-11T14:57:11.759Z,3.00
2018-12-11T14:59:46.512Z,2.10
2018-12-11T15:02:18.313Z,2.83
2018-12-11T15:04:50.723Z,3.13
2018-12-11T15:07:23.117Z,2.30
2018-12-11T15:09:55.235Z,2.23
2018-12-11T15:12:27.839Z,2.50
2018-12-11T15:14:59.793Z,2.30
2018-12-11T15:17:31.795Z,2.50
2018-12-11T15:20:04.567Z,2.80
2018-12-11T15:22:36.114Z,10.40
2018-12-11T15:25:08.243Z,8.67
2018-12-11T15:27:40.542Z,4.20
2018-12-11T15:30:12.940Z,2.33
2018-12-11T15:32:45.268Z,2.10
2018-12-11T15:35:16.813Z,1.73
2018-12-11T15:37:48.583Z,2.47
2018-12-11T15:42:54.221Z,2.03
2018-12-11T15:45:28.756Z,3.20
2018-12-11T15:54:02.994Z,2.10
2018-12-11T15:56:47.681Z,2.97
2018-12-11T16:02:09.303Z,1.80
2018-12-11T16:04:55.828Z,1.60
2018-12-11T16:07:29.949Z,2.70
2018-12-11T16:13:07.084Z,2.47
2018-12-11T16:15:55.412Z,2.43
2018-12-11T16:18:25.942Z,2.23
2018-12-11T16:23:43.027Z,4.73
2018-12-11T16:26:15.729Z,3.80
2018-12-11T16:29:05.722Z,4.53
2018-12-11T16:31:39.860Z,2.73
2018-12-11T16:36:57.676Z,3.33
2018-12-11T16:39:29.477Z,3.50
2018-12-11T16:42:04.295Z,2.87
2018-12-11T16:44:39.250Z,3.77
2018-12-11T16:47:11.085Z,4.50
2018-12-11T16:49:43.460Z,5.50
2018-12-11T16:52:15.766Z,6.50
2018-12-11T16:54:53.774Z,3.00
2018-12-11T16:57:31.134Z,2.40
2018-12-11T17:00:04.491Z,5.37
2018-12-11T17:02:43.418Z,11.40
2018-12-11T17:05:15.658Z,12.47
2018-12-11T17:13:06.378Z,6.47
2018-12-11T17:15:41.477Z,4.60
2018-12-11T17:18:16.455Z,5.37
2018-12-11T17:20:49.665Z,7.40
2018-12-11T17:23:21.656Z,4.87
2018-12-11T17:25:56.503Z,4.20
2018-12-11T17:28:29.047Z,4.97
2018-12-11T17:31:01.175Z,4.00
2018-12-11T17:33:36.562Z,4.87
2018-12-11T17:36:09.232Z,6.20
2018-12-11T17:38:41.413Z,7.10
2018-12-11T17:41:13.651Z,8.27
2018-12-11T17:43:45.914Z,6.90
2018-12-11T17:46:20.594Z,5.10
2018-12-11T17:48:52.320Z,5.80
2018-12-11T17:51:24.986Z,5.30
2018-12-11T17:53:57.660Z,5.20
2018-12-11T17:56:30.036Z,5.70
2018-12-11T17:59:04.018Z,5.27
2018-12-11T18:01:39.144Z,4.70
2018-12-11T18:04:11.330Z,4.50
2018-12-11T18:06:46.294Z,4.50
2018-12-11T18:09:18.205Z,7.70
2018-12-11T18:11:50.642Z,8.37
2018-12-11T18:14:25.548Z,16.37
2018-12-11T18:16:59.992Z,10.63
2018-12-11T18:19:34.945Z,7.67
2018-12-11T18:22:06.783Z,7.90
2018-12-11T18:24:39.459Z,8.40
2018-12-11T18:27:11.525Z,7.87
2018-12-11T18:29:46.029Z,6.97
2018-12-11T18:32:25.092Z,12.60
2018-12-11T18:34:55.917Z,18.47
2018-12-11T18:37:28.863Z,23.10
2018-12-11T18:40:01.481Z,16.27
2018-12-11T18:42:34.334Z,13.13
2018-12-11T18:45:07.395Z,11.93
2018-12-11T18:47:39.386Z,12.67
2018-12-11T18:50:21.224Z,10.67
2018-12-11T18:52:49.303Z,8.90
2018-12-11T18:55:21.547Z,8.30
2018-12-11T18:57:53.947Z,9.70
2018-12-11T19:00:26.446Z,10.43
2018-12-11T19:02:58.695Z,14.73
2018-12-11T19:05:31.241Z,12.40
2018-12-11T19:08:06.012Z,10.00
2018-12-11T19:10:38.456Z,9.80
2018-12-11T19:13:11.003Z,9.60
2018-12-11T19:15:45.793Z,8.67
2018-12-11T19:18:20.572Z,9.57
2018-12-11T19:21:01.198Z,14.03
2018-12-11T19:23:42.594Z,16.60
2018-12-11T19:26:17.521Z,14.17
2018-12-11T19:28:49.818Z,11.43
2018-12-11T19:31:21.790Z,11.43
2018-12-11T19:33:55.642Z,9.63
2018-12-11T19:36:31.156Z,10.90
2018-12-11T19:39:04.884Z,9.60
2018-12-11T19:41:38.049Z,8.70
2018-12-11T19:44:09.723Z,8.67
2018-12-11T19:46:53.615Z,7.87
2018-12-11T19:49:29.758Z,8.63
2018-12-11T19:52:12.068Z,7.57
2018-12-11T19:54:44.501Z,8.67
2018-12-11T19:57:16.802Z,8.37
2018-12-11T19:59:56.959Z,8.67
2018-12-11T20:02:31.759Z,9.13
2018-12-11T20:05:05.604Z,8.67
2018-12-11T20:07:40.257Z,7.57
2018-12-11T20:10:16.375Z,7.23
2018-12-11T20:13:05.142Z,7.60
2018-12-11T20:15:40.755Z,8.47
2018-12-11T20:18:15.911Z,9.97
2018-12-11T20:20:49.050Z,11.93
2018-12-11T20:23:20.782Z,10.00
2018-12-11T20:25:55.268Z,8.33
2018-12-11T20:28:27.642Z,9.07
2018-12-11T20:31:00.242Z,9.33
2018-12-11T20:33:36.682Z,9.17
2018-12-11T20:36:11.068Z,8.33
2018-12-11T20:38:43.336Z,8.70
2018-12-11T20:41:18.920Z,8.30
2018-12-11T20:43:54.860Z,8.63
2018-12-11T20:46:30.020Z,8.17
2018-12-11T20:49:04.844Z,7.83
2018-12-11T20:51:44.072Z,7.73
2018-12-11T20:54:18.115Z,8.20
2018-12-11T20:56:51.087Z,8.37
2018-12-11T20:59:25.429Z,10.10
2018-12-11T21:01:57.245Z,9.00
2018-12-11T21:04:32.657Z,9.00
2018-12-11T21:07:16.916Z,8.63
2018-12-11T21:09:49.205Z,9.27
2018-12-11T21:12:39.851Z,9.67
2018-12-11T21:15:23.884Z,8.97
2018-12-11T21:18:03.453Z,9.03
2018-12-11T21:20:38.377Z,7.43
2018-12-11T21:23:18.893Z,9.90
2018-12-11T21:26:01.248Z,12.57
2018-12-11T21:28:35.994Z,11.50
2018-12-11T21:31:10.902Z,11.50
2018-12-11T21:33:43.118Z,11.10
2018-12-11T21:36:21.552Z,11.10
2018-12-11T21:38:53.474Z,10.23
2018-12-11T21:41:28.284Z,10.43
2018-12-11T21:46:49.478Z,9.53
2018-12-11T21:49:21.525Z,9.33
2018-12-11T21:51:53.877Z,10.10
2018-12-11T21:54:25.914Z,9.90
2018-12-11T21:56:58.055Z,9.57
2018-12-11T21:59:35.470Z,9.47
2018-12-11T22:02:07.601Z,9.00
2018-12-11T22:04:40.046Z,10.10
2018-12-11T22:07:14.706Z,9.87
2018-12-11T22:09:48.541Z,8.80
2018-12-11T22:12:27.585Z,7.40
2018-12-11T22:15:01.897Z,7.80
2018-12-11T22:17:36.660Z,8.07
2018-12-11T22:20:09.546Z,8.17
2018-12-11T22:22:44.354Z,7.23
2018-12-11T22:25:16.341Z,7.50
2018-12-11T22:27:54.350Z,7.47
2018-12-11T22:30:26.475Z,6.90
2018-12-11T22:33:00.829Z,7.03
2018-12-11T22:35:33.143Z,7.27
2018-12-11T22:50:36.189Z,7.17
2018-12-11T22:53:08.316Z,6.40
2018-12-11T22:55:40.720Z,5.00
2018-12-11T22:58:12.952Z,5.47
2018-12-11T23:00:46.071Z,4.67
2018-12-11T23:03:33.307Z,4.60
2018-12-11T23:06:08.172Z,4.30
2018-12-11T23:08:39.751Z,5.03
2018-12-11T23:11:11.899Z,4.90
2018-12-11T23:13:45.897Z,5.20
2018-12-11T23:16:17.755Z,4.80
2018-12-11T23:18:50.065Z,5.33
2018-12-11T23:21:22.069Z,5.50
2018-12-11T23:23:54.443Z,5.10
2018-12-11T23:26:28.989Z,5.57
2018-12-11T23:29:00.437Z,5.40
2018-12-11T23:31:32.007Z,5.87
2018-12-11T23:34:05.933Z,5.73
2018-12-11T23:36:37.767Z,7.03
2018-12-11T23:39:11.599Z,8.10
2018-12-11T23:41:43.713Z,6.80
2018-12-11T23:44:15.958Z,7.17
2018-12-11T23:46:48.185Z,6.70
2018-12-11T23:49:20.440Z,7.23
2018-12-11T23:51:53.015Z,5.90
2018-12-11T23:54:27.505Z,6.53
2018-12-11T23:57:00.157Z,6.23
2018-12-11T23:59:32.256Z,6.17
